sensor_id;sensor_type;location;lat;lon;timestamp;P1;P2;P0
47709;PMS7003;33473;51.640;5.892;2023-02-28T00:02:22;24.01;21.7;12.65
47709;PMS7003;33473;51.640;5.892;2023-02-28T00:15:42;22.69;22.35;12.65
47709;PMS7003;33473;51.640;5.892;2023-02-28T00:29:02;23.41;22.14;12.65
47709;PMS7003;33473;51.640;5.892;2023-02-28T00:42:21;22.09;22.25;12.54
47709;PMS7003;33473;51.640;5.892;2023-02-28T00:55:41;22.33;21.59;12.44
47709;PMS7003;33473;51.640;5.892;2023-02-28T01:09:01;22.09;22.25;12.44
47709;PMS7003;33473;51.640;5.892;2023-02-28T01:22:20;20.29;21.05;12.11
47709;PMS7003;33473;51.640;5.892;2023-02-28T01:35:40;22.45;22.25;12.33
47709;PMS7003;33473;51.640;5.892;2023-02-28T01:49:00;21.97;22.46;12.22
47709;PMS7003;33473;51.640;5.892;2023-02-28T02:02:19;19.09;20.39;11.78
47709;PMS7003;33473;51.640;5.892;2023-02-28T02:15:39;18.37;19.74;10.69
47709;PMS7003;33473;51.640;5.892;2023-02-28T02:28:58;20.53;20.72;11.24
47709;PMS7003;33473;51.640;5.892;2023-02-28T02:42:18;18.49;19.19;10.58
47709;PMS7003;33473;51.640;5.892;2023-02-28T02:55:38;17.05;18.43;10.58
47709;PMS7003;33473;51.640;5.892;2023-02-28T03:08:58;16.93;18.1;10.47
47709;PMS7003;33473;51.640;5.892;2023-02-28T03:22:17;15.73;17.34;10.26
47709;PMS7003;33473;51.640;5.892;2023-02-28T03:35:37;14.77;16.69;9.38
47709;PMS7003;33473;51.640;5.892;2023-02-28T03:48:57;14.53;14.62;8.84
47709;PMS7003;33473;51.640;5.892;2023-02-28T04:02:16;12.49;14.4;8.4
47709;PMS7003;33473;51.640;5.892;2023-02-28T04:15:36;12.37;14.51;8.51
47709;PMS7003;33473;51.640;5.892;2023-02-28T04:28:56;13.09;14.29;8.84
47709;PMS7003;33473;51.640;5.892;2023-02-28T04:42:15;10.69;12.87;7.64
47709;PMS7003;33473;51.640;5.892;2023-02-28T04:55:35;9.85;12.11;7.42
47709;PMS7003;33473;51.640;5.892;2023-02-28T05:08:55;9.37;11.35;7.42
47709;PMS7003;33473;51.640;5.892;2023-02-28T05:22:14;12.13;12.33;7.86
47709;PMS7003;33473;51.640;5.892;2023-02-28T05:35:34;11.53;12.33;7.2
47709;PMS7003;33473;51.640;5.892;2023-02-28T05:48:54;11.29;13.42;8.4
47709;PMS7003;33473;51.640;5.892;2023-02-28T06:02:13;11.89;13.85;8.62
47709;PMS7003;33473;51.640;5.892;2023-02-28T06:15:33;11.53;13.53;8.73
47709;PMS7003;33473;51.640;5.892;2023-02-28T06:28:53;10.57;12.87;8.29
47709;PMS7003;33473;51.640;5.892;2023-02-28T06:42:12;11.77;12.65;7.86
47709;PMS7003;33473;51.640;5.892;2023-02-28T06:55:32;11.17;13.09;8.29
47709;PMS7003;33473;51.640;5.892;2023-02-28T07:08:52;11.41;13.63;8.4
47709;PMS7003;33473;51.640;5.892;2023-02-28T07:22:12;11.05;13.09;7.75
47709;PMS7003;33473;51.640;5.892;2023-02-28T07:35:31;8.17;10.69;7.09
47709;PMS7003;33473;51.640;5.892;2023-02-28T07:48:51;7.09;9.71;6.66
47709;PMS7003;33473;51.640;5.892;2023-02-28T08:02:11;6.73;9.27;6.11
47709;PMS7003;33473;51.640;5.892;2023-02-28T08:15:30;5.41;7.64;5.24
47709;PMS7003;33473;51.640;5.892;2023-02-28T08:28:50;4.81;7.64;5.02
47709;PMS7003;33473;51.640;5.892;2023-02-28T08:42:10;4.33;7.2;5.35
47709;PMS7003;33473;51.640;5.892;2023-02-28T08:55:29;4.33;6.55;4.7
47709;PMS7003;33473;51.640;5.892;2023-02-28T09:08:49;1.68;4.8;3.39
47709;PMS7003;33473;51.640;5.892;2023-02-28T09:22:09;1.68;4.59;3.39
47709;PMS7003;33473;51.640;5.892;2023-02-28T09:35:28;1.2;4.26;3.06
47709;PMS7003;33473;51.640;5.892;2023-02-28T09:48:48;0.6;3.71;2.84
47709;PMS7003;33473;51.640;5.892;2023-02-28T10:02:08;0.0;3.17;2.52
47709;PMS7003;33473;51.640;5.892;2023-02-28T10:15:27;0.72;3.39;2.62
47709;PMS7003;33473;51.640;5.892;2023-02-28T10:28:47;0.12;3.28;2.52
47709;PMS7003;33473;51.640;5.892;2023-02-28T10:42:07;0.01;3.17;2.41
47709;PMS7003;33473;51.640;5.892;2023-02-28T10:55:26;0.0;3.17;2.41
47709;PMS7003;33473;51.640;5.892;2023-02-28T11:08:46;0.72;3.06;2.52
47709;PMS7003;33473;51.640;5.892;2023-02-28T11:22:06;0.84;3.5;2.73
47709;PMS7003;33473;51.640;5.892;2023-02-28T11:35:25;0.6;3.82;2.84
47709;PMS7003;33473;51.640;5.892;2023-02-28T11:48:45;0.48;3.61;2.84
47709;PMS7003;33473;51.640;5.892;2023-02-28T12:02:05;0.36;3.61;2.95
47709;PMS7003;33473;51.640;5.892;2023-02-28T12:15:25;0.96;4.15;3.06
47709;PMS7003;33473;51.640;5.892;2023-02-28T12:28:44;1.8;4.04;2.73
47709;PMS7003;33473;51.640;5.892;2023-02-28T12:42:04;0.24;3.5;2.73
47709;PMS7003;33473;51.640;5.892;2023-02-28T12:55:24;0.96;4.04;2.95
47709;PMS7003;33473;51.640;5.892;2023-02-28T13:08:43;0.6;3.82;3.06
47709;PMS7003;33473;51.640;5.892;2023-02-28T13:22:03;1.44;4.59;3.61
47709;PMS7003;33473;51.640;5.892;2023-02-28T13:35:23;1.32;4.48;3.28
47709;PMS7003;33473;51.640;5.892;2023-02-28T13:48:42;2.28;5.24;3.93
47709;PMS7003;33473;51.640;5.892;2023-02-28T14:02:02;1.56;4.59;3.5
47709;PMS7003;33473;51.640;5.892;2023-02-28T14:15:22;2.04;5.02;3.82
47709;PMS7003;33473;51.640;5.892;2023-02-28T14:28:41;2.64;5.02;4.04
47709;PMS7003;33473;51.640;5.892;2023-02-28T14:42:01;3.36;6.33;4.59
47709;PMS7003;33473;51.640;5.892;2023-02-28T14:55:21;2.4;5.46;4.26
47709;PMS7003;33473;51.640;5.892;2023-02-28T15:08:40;3.73;6.66;4.8
47709;PMS7003;33473;51.640;5.892;2023-02-28T15:22:00;3.48;6.22;4.37
47709;PMS7003;33473;51.640;5.892;2023-02-28T15:35:20;2.88;5.68;4.37
47709;PMS7003;33473;51.640;5.892;2023-02-28T15:48:39;2.88;5.9;4.26
47709;PMS7003;33473;51.640;5.892;2023-02-28T16:01:59;2.64;5.68;4.26
47709;PMS7003;33473;51.640;5.892;2023-02-28T16:15:19;3.36;6.22;4.59
47709;PMS7003;33473;51.640;5.892;2023-02-28T16:28:38;3.0;5.9;4.37
47709;PMS7003;33473;51.640;5.892;2023-02-28T16:41:58;4.21;5.68;4.26
47709;PMS7003;33473;51.640;5.892;2023-02-28T16:55:18;3.0;6.0;4.37
47709;PMS7003;33473;51.640;5.892;2023-02-28T17:08:37;3.97;6.55;4.59
47709;PMS7003;33473;51.640;5.892;2023-02-28T17:21:57;4.33;7.2;5.35
47709;PMS7003;33473;51.640;5.892;2023-02-28T17:35:17;6.01;8.08;5.35
47709;PMS7003;33473;51.640;5.892;2023-02-28T17:48:36;6.37;7.64;5.24
47709;PMS7003;33473;51.640;5.892;2023-02-28T18:01:56;6.01;8.08;5.24
47709;PMS7003;33473;51.640;5.892;2023-02-28T18:15:16;6.61;8.62;5.68
47709;PMS7003;33473;51.640;5.892;2023-02-28T18:28:35;5.53;7.64;5.13
47709;PMS7003;33473;51.640;5.892;2023-02-28T18:41:55;7.81;8.4;5.46
47709;PMS7003;33473;51.640;5.892;2023-02-28T18:55:15;5.65;8.4;5.68
47709;PMS7003;33473;51.640;5.892;2023-02-28T19:08:34;7.57;9.93;6.55
47709;PMS7003;33473;51.640;5.892;2023-02-28T19:21:54;9.25;11.67;7.2
47709;PMS7003;33473;51.640;5.892;2023-02-28T19:35:14;10.09;12.11;7.97
47709;PMS7003;33473;51.640;5.892;2023-02-28T19:48:33;11.29;12.44;7.2
47709;PMS7003;33473;51.640;5.892;2023-02-28T20:01:53;14.05;15.27;8.73
47709;PMS7003;33473;51.640;5.892;2023-02-28T20:15:13;11.65;13.85;8.51
47709;PMS7003;33473;51.640;5.892;2023-02-28T20:28:32;14.05;14.83;8.29
47709;PMS7003;33473;51.640;5.892;2023-02-28T20:41:52;12.01;14.07;8.84
47709;PMS7003;33473;51.640;5.892;2023-02-28T20:55:12;13.33;15.27;8.62
47709;PMS7003;33473;51.640;5.892;2023-02-28T21:08:31;13.69;15.71;9.17
47709;PMS7003;33473;51.640;5.892;2023-02-28T21:21:51;16.33;17.01;9.49
47709;PMS7003;33473;51.640;5.892;2023-02-28T21:35:11;16.57;17.34;9.82
47709;PMS7003;33473;51.640;5.892;2023-02-28T21:48:30;17.41;17.89;10.26
47709;PMS7003;33473;51.640;5.892;2023-02-28T22:01:50;18.01;18.65;10.69
47709;PMS7003;33473;51.640;5.892;2023-02-28T22:15:10;17.41;17.78;10.04
47709;PMS7003;33473;51.640;5.892;2023-02-28T22:28:30;18.25;18.54;10.58
47709;PMS7003;33473;51.640;5.892;2023-02-28T22:41:49;17.05;18.1;10.36
47709;PMS7003;33473;51.640;5.892;2023-02-28T22:55:09;16.33;17.23;10.15
47709;PMS7003;33473;51.640;5.892;2023-02-28T23:08:29;16.21;17.67;10.36
47709;PMS7003;33473;51.640;5.892;2023-02-28T23:21:48;17.41;18.1;10.91
47709;PMS7003;33473;51.640;5.892;2023-02-28T23:35:08;16.57;17.67;10.26
47709;PMS7003;33473;51.640;5.892;2023-02-28T23:48:28;15.97;17.56;9.71
